Time;durP1;ratioP1;P1;durP2;ratioP2;P2;SDS_P1;SDS_P2;PMS_P1;PMS_P2;Temp;Humidity;BMP_temperature;BMP_pressure;BME280_temperature;BME280_humidity;BME280_pressure;Samples;Min_cycle;Max_cycle;Signal;HPM_P1;HPM_P2
2021/12/29 00:00:58;;;;;;;4.93;3.38;;;11.10;83.00;;;;;;5044737;28;20056;-71
2021/12/29 00:03:25;;;;;;;3.22;2.90;;;11.10;83.00;;;;;;5045023;28;20029;-71
2021/12/29 00:05:51;;;;;;;5.93;3.00;;;11.10;83.00;;;;;;5045672;28;20389;-71
2021/12/29 00:08:17;;;;;;;3.55;3.10;;;11.10;83.00;;;;;;5045257;28;20465;-71
2021/12/29 00:10:43;;;;;;;3.97;3.28;;;11.10;83.00;;;;;;5045306;28;20044;-72
2021/12/29 00:13:09;;;;;;;3.72;3.20;;;11.10;83.00;;;;;;5045592;28;20040;-71
2021/12/29 00:15:36;;;;;;;5.55;2.95;;;11.10;83.00;;;;;;5045183;28;20040;-71
2021/12/29 00:18:02;;;;;;;5.80;3.08;;;11.10;83.10;;;;;;5044997;28;20608;-71
2021/12/29 00:20:31;;;;;;;5.20;2.72;;;11.10;83.10;;;;;;5045247;28;20045;-70
2021/12/29 00:23:04;;;;;;;4.55;3.10;;;11.00;82.90;;;;;;5045849;28;20041;-71
2021/12/29 00:25:31;;;;;;;4.15;3.20;;;11.10;83.10;;;;;;5044892;28;20028;-71
2021/12/29 00:27:59;;;;;;;4.07;3.05;;;11.00;82.90;;;;;;5044577;28;20029;-71
2021/12/29 00:30:26;;;;;;;5.63;2.72;;;11.00;82.90;;;;;;5045626;28;20025;-70
2021/12/29 00:32:55;;;;;;;5.15;3.30;;;11.00;82.90;;;;;;5045296;28;20036;-71
2021/12/29 00:35:41;;;;;;;7.10;3.10;;;11.00;83.00;;;;;;5045104;28;20025;-70
2021/12/29 00:38:26;;;;;;;4.78;3.72;;;11.00;83.00;;;;;;5045126;28;20435;-71
2021/12/29 00:41:11;;;;;;;4.28;2.90;;;11.00;83.00;;;;;;5044388;28;20032;-70
2021/12/29 00:43:56;;;;;;;4.25;3.22;;;11.00;82.90;;;;;;5045537;28;20040;-73
2021/12/29 00:46:40;;;;;;;5.38;2.55;;;11.00;82.90;;;;;;5043786;28;20039;-73
2021/12/29 00:49:08;;;;;;;3.67;2.75;;;11.10;83.10;;;;;;5045143;28;20052;-73
2021/12/29 00:51:35;;;;;;;4.70;2.88;;;11.10;83.10;;;;;;5045343;28;20041;-72
2021/12/29 00:54:02;;;;;;;3.90;2.63;;;11.10;83.20;;;;;;5045035;28;20060;-72
2021/12/29 00:56:27;;;;;;;3.97;2.80;;;11.10;83.10;;;;;;5044853;28;20033;-72
2021/12/29 00:58:53;;;;;;;5.63;3.10;;;11.10;83.10;;;;;;5045871;28;20036;-72
2021/12/29 01:01:20;;;;;;;5.53;3.05;;;11.10;83.10;;;;;;5049038;28;20374;-71
2021/12/29 01:03:46;;;;;;;4.70;2.58;;;11.10;83.10;;;;;;5047006;28;20415;-72
2021/12/29 01:06:12;;;;;;;5.80;3.40;;;11.10;83.10;;;;;;5048915;28;20087;-72
2021/12/29 01:08:38;;;;;;;4.22;2.42;;;11.10;83.10;;;;;;5048742;28;20028;-71
2021/12/29 01:11:05;;;;;;;2.35;2.05;;;11.10;83.10;;;;;;5030914;28;20043;-72
2021/12/29 01:13:33;;;;;;;7.95;2.88;;;11.10;83.10;;;;;;5030833;28;20039;-73
2021/12/29 01:18:38;;;;;;;5.72;3.00;;;11.10;83.10;;;;;;5048655;28;20074;-72
2021/12/29 01:21:05;;;;;;;4.88;2.65;;;11.10;83.10;;;;;;5048381;28;20049;-72
2021/12/29 01:23:32;;;;;;;5.50;3.00;;;11.10;83.10;;;;;;5048280;28;20379;-72
2021/12/29 01:25:58;;;;;;;7.53;3.75;;;11.10;83.20;;;;;;5048004;28;20029;-72
2021/12/29 01:28:23;;;;;;;5.53;2.55;;;11.10;83.10;;;;;;5047775;28;20120;-72
2021/12/29 01:30:50;;;;;;;4.35;2.97;;;11.10;83.20;;;;;;5048383;28;20098;-72
2021/12/29 01:33:16;;;;;;;4.90;2.40;;;11.10;83.20;;;;;;5047935;28;20040;-71
2021/12/29 01:35:42;;;;;;;5.65;2.80;;;11.10;83.20;;;;;;5047942;28;20401;-71
2021/12/29 01:38:09;;;;;;;6.47;2.63;;;11.10;83.20;;;;;;5048227;28;20044;-72
2021/12/29 01:40:37;;;;;;;6.95;2.53;;;11.10;83.20;;;;;;5048188;28;20466;-72
2021/12/29 01:43:05;;;;;;;7.35;2.88;;;11.10;83.20;;;;;;5047769;28;20031;-72
2021/12/29 01:45:32;;;;;;;7.80;3.17;;;11.10;83.20;;;;;;5047704;28;20374;-72
2021/12/29 01:48:00;;;;;;;3.17;2.22;;;11.10;83.20;;;;;;5047508;28;20045;-72
2021/12/29 01:50:26;;;;;;;5.13;2.47;;;11.10;83.20;;;;;;5047774;28;20404;-72
2021/12/29 01:52:57;;;;;;;6.18;2.60;;;11.10;83.20;;;;;;5030234;28;20028;-72
2021/12/29 01:55:25;;;;;;;6.38;2.95;;;11.10;83.20;;;;;;5047317;28;20028;-72
2021/12/29 01:57:52;;;;;;;7.18;2.97;;;11.20;83.30;;;;;;5047400;28;20048;-72
2021/12/29 02:00:21;;;;;;;5.85;2.33;;;11.10;83.10;;;;;;5048075;28;20041;-72
2021/12/29 02:02:47;;;;;;;7.60;2.88;;;11.10;83.10;;;;;;5048020;28;20156;-73
2021/12/29 02:05:13;;;;;;;6.70;3.22;;;11.20;83.30;;;;;;5047853;28;20048;-72
2021/12/29 02:07:41;;;;;;;7.07;2.70;;;11.20;83.30;;;;;;5047489;28;20553;-72
2021/12/29 02:10:08;;;;;;;7.97;2.97;;;11.10;83.10;;;;;;5047207;28;20025;-72
2021/12/29 02:12:35;;;;;;;6.82;3.40;;;11.10;83.10;;;;;;5047279;28;20025;-72
2021/12/29 02:15:01;;;;;;;7.70;3.35;;;11.10;83.10;;;;;;5046216;28;20411;-72
2021/12/29 02:17:28;;;;;;;7.47;2.65;;;11.10;83.10;;;;;;5046894;28;20131;-72
2021/12/29 02:19:57;;;;;;;7.13;2.65;;;11.10;83.10;;;;;;5046815;28;20033;-71
2021/12/29 02:22:43;;;;;;;6.68;2.40;;;11.10;83.20;;;;;;5047540;28;20024;-71
2021/12/29 02:27:54;;;;;;;7.40;2.72;;;11.10;83.10;;;;;;5047130;28;20037;-71
2021/12/29 02:30:23;;;;;;;8.50;3.33;;;11.10;83.10;;;;;;5047893;28;20117;-72
2021/12/29 02:32:54;;;;;;;7.80;2.65;;;11.10;83.10;;;;;;5065030;28;20038;-71
2021/12/29 02:35:20;;;;;;;5.82;2.50;;;11.10;83.10;;;;;;5068584;28;20037;-71
2021/12/29 02:37:46;;;;;;;8.73;3.22;;;11.10;83.10;;;;;;5069258;28;20036;-72
2021/12/29 02:40:12;;;;;;;9.05;3.97;;;11.10;83.10;;;;;;5068471;28;20079;-71
2021/12/29 02:42:41;;;;;;;6.18;2.50;;;11.20;83.30;;;;;;5067963;28;20028;-72
2021/12/29 02:45:17;;;;;;;9.65;3.58;;;11.20;83.30;;;;;;5067882;28;20040;-72
2021/12/29 02:47:44;;;;;;;9.13;3.00;;;11.20;83.30;;;;;;5051127;28;20397;-71
2021/12/29 02:50:10;;;;;;;5.45;3.00;;;11.20;83.30;;;;;;5071257;28;20040;-72
2021/12/29 02:52:36;;;;;;;8.60;3.00;;;11.20;83.20;;;;;;5072091;28;20029;-72
2021/12/29 02:55:03;;;;;;;10.13;4.22;;;11.20;83.20;;;;;;5053427;28;20388;-72
2021/12/29 02:57:29;;;;;;;7.60;2.63;;;11.20;83.20;;;;;;5070128;28;20388;-73
2021/12/29 02:59:55;;;;;;;7.13;2.67;;;11.20;83.20;;;;;;5053324;28;20036;-72
2021/12/29 03:02:21;;;;;;;6.82;3.08;;;11.20;83.20;;;;;;5071438;28;20085;-72
2021/12/29 03:04:47;;;;;;;6.75;2.80;;;11.20;83.20;;;;;;5071341;28;20162;-72
2021/12/29 03:07:13;;;;;;;9.38;3.10;;;11.10;83.00;;;;;;5070555;28;20028;-72
2021/12/29 03:09:39;;;;;;;6.80;2.38;;;11.20;83.20;;;;;;5053522;28;20032;-71
2021/12/29 03:12:05;;;;;;;5.65;2.00;;;11.20;83.20;;;;;;5071476;28;20036;-71
2021/12/29 03:14:31;;;;;;;8.18;2.47;;;11.20;83.20;;;;;;5071275;28;20032;-72
2021/12/29 03:16:58;;;;;;;8.52;2.55;;;11.10;83.00;;;;;;5071269;28;20518;-72
2021/12/29 03:19:24;;;;;;;6.97;2.63;;;11.20;83.20;;;;;;5071004;28;20117;-72
2021/12/29 03:21:50;;;;;;;7.78;2.25;;;11.10;83.00;;;;;;5070742;28;20056;-72
2021/12/29 03:24:18;;;;;;;4.78;2.40;;;11.10;83.00;;;;;;5053121;28;20074;-72
2021/12/29 03:26:44;;;;;;;5.38;2.28;;;11.20;83.20;;;;;;5071295;28;20039;-71
2021/12/29 03:29:10;;;;;;;7.10;2.28;;;11.10;83.00;;;;;;5070508;28;20454;-71
2021/12/29 03:31:39;;;;;;;7.38;2.67;;;11.20;83.30;;;;;;5070916;28;20030;-71
2021/12/29 03:34:05;;;;;;;4.97;2.60;;;11.20;83.20;;;;;;5070869;28;20056;-71
2021/12/29 03:36:32;;;;;;;7.75;2.67;;;11.10;83.00;;;;;;5071454;28;20052;-71
2021/12/29 03:38:58;;;;;;;6.65;2.15;;;11.20;83.20;;;;;;5070689;28;20029;-72
2021/12/29 03:41:24;;;;;;;7.60;2.60;;;11.20;83.20;;;;;;5071077;28;20090;-71
2021/12/29 03:43:50;;;;;;;6.70;2.97;;;11.20;83.20;;;;;;5069993;28;20052;-72
2021/12/29 03:46:16;;;;;;;4.93;2.58;;;11.20;83.20;;;;;;5052362;28;20107;-72
2021/12/29 03:48:45;;;;;;;8.05;2.65;;;11.20;83.20;;;;;;5070913;28;20039;-72
2021/12/29 03:51:12;;;;;;;7.45;2.08;;;11.20;83.20;;;;;;5071296;28;20383;-72
2021/12/29 03:53:38;;;;;;;3.88;1.90;;;11.20;83.20;;;;;;5070319;28;20393;-72
2021/12/29 03:56:05;;;;;;;4.53;1.83;;;11.20;83.20;;;;;;5052998;28;20033;-71
2021/12/29 03:58:31;;;;;;;5.15;2.28;;;11.20;83.20;;;;;;5070210;28;20082;-72
2021/12/29 04:01:03;;;;;;;4.05;2.08;;;11.20;83.20;;;;;;5070943;28;20041;-70
2021/12/29 04:03:29;;;;;;;4.78;2.35;;;11.20;83.20;;;;;;5070774;28;20052;-71
2021/12/29 04:05:55;;;;;;;5.22;2.65;;;11.10;83.00;;;;;;5070262;28;20033;-72
2021/12/29 04:08:21;;;;;;;4.90;2.10;;;11.20;83.20;;;;;;5070691;28;20171;-72
2021/12/29 04:10:47;;;;;;;6.57;1.98;;;11.20;83.20;;;;;;5070711;28;20120;-71
2021/12/29 04:13:14;;;;;;;4.53;2.03;;;11.20;83.20;;;;;;5070611;28;20415;-72
2021/12/29 04:15:41;;;;;;;4.18;2.10;;;11.10;83.00;;;;;;5070456;28;20120;-71
2021/12/29 04:18:15;;;;;;;4.50;2.05;;;11.10;83.00;;;;;;5052774;28;20035;-72
2021/12/29 04:20:57;;;;;;;5.60;2.03;;;11.10;83.00;;;;;;5070497;28;20563;-71
2021/12/29 04:23:29;;;;;;;5.63;2.03;;;11.10;83.00;;;;;;5069335;28;20040;-72
2021/12/29 04:25:57;;;;;;;3.17;1.60;;;11.10;83.00;;;;;;5070535;28;20033;-71
2021/12/29 04:28:25;;;;;;;3.17;1.40;;;11.10;83.00;;;;;;5069738;28;20027;-72
2021/12/29 04:31:00;;;;;;;4.80;2.40;;;11.20;83.30;;;;;;5070574;28;20040;-72
2021/12/29 04:33:28;;;;;;;4.68;1.55;;;11.10;83.10;;;;;;5070629;28;20037;-72
2021/12/29 04:35:54;;;;;;;3.40;1.83;;;11.10;83.00;;;;;;5073788;28;20033;-71
2021/12/29 04:38:21;;;;;;;4.65;1.70;;;11.10;83.10;;;;;;5074535;28;20062;-72
2021/12/29 04:40:50;;;;;;;4.15;1.80;;;11.10;83.10;;;;;;5074214;28;20036;-71
2021/12/29 04:43:17;;;;;;;3.10;1.45;;;11.10;83.10;;;;;;5074032;28;20028;-70
2021/12/29 04:45:44;;;;;;;4.60;1.70;;;11.10;83.10;;;;;;5073982;28;20028;-71
2021/12/29 04:48:13;;;;;;;3.97;1.83;;;11.10;83.10;;;;;;5074033;28;20400;-71
2021/12/29 04:50:50;;;;;;;6.00;1.80;;;11.10;83.10;;;;;;5073952;28;20064;-71
2021/12/29 04:53:19;;;;;;;2.67;1.45;;;11.10;83.10;;;;;;5074153;28;20599;-72
2021/12/29 04:55:47;;;;;;;2.72;1.30;;;11.10;83.00;;;;;;5074298;28;20024;-71
2021/12/29 04:58:14;;;;;;;4.47;1.55;;;11.10;83.00;;;;;;5072949;28;20544;-71
2021/12/29 05:00:40;;;;;;;3.40;1.30;;;11.10;83.00;;;;;;5073738;28;20108;-71
2021/12/29 05:03:06;;;;;;;2.60;2.05;;;11.10;83.50;;;;;;5073636;28;20027;-71
2021/12/29 05:10:45;;;;;;;3.10;1.40;;;11.10;83.10;;;;;;5073877;28;20036;-72
2021/12/29 05:13:11;;;;;;;2.67;1.45;;;11.10;83.60;;;;;;5073819;28;20039;-71
2021/12/29 05:15:37;;;;;;;3.50;1.15;;;11.10;83.10;;;;;;5073229;28;20383;-71
2021/12/29 05:18:03;;;;;;;2.85;1.30;;;11.10;83.10;;;;;;5073303;28;20032;-71
2021/12/29 05:20:29;;;;;;;4.45;1.63;;;11.10;83.10;;;;;;5073162;28;20072;-71
2021/12/29 05:22:57;;;;;;;3.42;1.23;;;11.10;83.10;;;;;;5073432;28;20411;-72
2021/12/29 05:25:23;;;;;;;3.10;1.17;;;11.10;83.20;;;;;;5073467;28;20560;-71
2021/12/29 05:27:49;;;;;;;4.05;1.60;;;11.10;83.10;;;;;;5072319;28;20124;-72
2021/12/29 05:30:16;;;;;;;3.10;1.33;;;11.10;83.10;;;;;;5055637;28;20058;-71
2021/12/29 05:32:42;;;;;;;3.42;1.50;;;11.10;83.20;;;;;;5073190;28;20059;-71
2021/12/29 05:35:08;;;;;;;2.08;1.13;;;11.10;83.20;;;;;;5073166;28;20033;-71
2021/12/29 05:37:34;;;;;;;2.38;1.10;;;11.10;83.20;;;;;;5073057;28;20578;-72
2021/12/29 05:40:01;;;;;;;1.98;1.20;;;11.10;83.20;;;;;;5072656;28;20131;-72
2021/12/29 05:42:27;;;;;;;1.50;1.02;;;11.10;83.20;;;;;;5073136;28;20119;-73
2021/12/29 05:44:53;;;;;;;2.15;1.17;;;11.20;83.40;;;;;;5072820;28;20085;-72
2021/12/29 05:47:18;;;;;;;1.88;1.00;;;11.10;83.10;;;;;;5049774;28;20049;-71
2021/12/29 05:49:44;;;;;;;1.92;0.88;;;11.20;83.30;;;;;;5048133;28;20033;-71
2021/12/29 05:52:10;;;;;;;2.20;1.17;;;11.20;83.30;;;;;;5049420;28;20076;-72
2021/12/29 05:54:36;;;;;;;2.40;1.50;;;11.20;83.30;;;;;;5049625;28;20061;-72
2021/12/29 05:57:03;;;;;;;2.60;1.30;;;11.10;83.10;;;;;;5049401;28;20029;-71
2021/12/29 05:59:29;;;;;;;1.65;1.00;;;11.20;83.30;;;;;;5031032;28;20033;-72
2021/12/29 06:01:55;;;;;;;2.03;1.00;;;11.20;83.30;;;;;;5027872;28;20037;-72
2021/12/29 06:04:21;;;;;;;1.70;0.90;;;11.20;83.30;;;;;;5047410;28;20059;-72
2021/12/29 06:06:46;;;;;;;1.15;0.85;;;11.20;83.30;;;;;;5048390;28;20033;-72
2021/12/29 06:09:14;;;;;;;1.27;1.13;;;11.20;83.30;;;;;;5032751;28;20094;-72
2021/12/29 06:11:40;;;;;;;1.38;0.93;;;11.10;83.10;;;;;;5028014;28;20124;-71
2021/12/29 06:14:06;;;;;;;1.88;0.85;;;11.20;83.30;;;;;;5027285;28;20545;-72
2021/12/29 06:16:32;;;;;;;1.20;0.98;;;11.20;83.30;;;;;;5027871;28;20037;-71
2021/12/29 06:18:58;;;;;;;1.25;1.00;;;11.20;83.30;;;;;;5027172;28;20508;-71
2021/12/29 06:21:24;;;;;;;1.55;0.93;;;11.20;83.20;;;;;;5027074;28;20161;-71
2021/12/29 06:23:49;;;;;;;2.40;1.00;;;11.20;83.20;;;;;;5027168;28;20036;-71
2021/12/29 06:26:15;;;;;;;2.38;0.98;;;11.20;83.20;;;;;;5027428;28;20401;-72
2021/12/29 06:28:43;;;;;;;2.00;0.88;;;11.20;83.20;;;;;;5026320;28;20415;-72
2021/12/29 06:31:10;;;;;;;1.63;0.82;;;11.20;83.20;;;;;;5027442;28;20029;-72
2021/12/29 06:33:35;;;;;;;0.77;0.63;;;11.30;83.30;;;;;;5027452;28;20021;-72
2021/12/29 06:36:01;;;;;;;1.63;0.82;;;11.30;83.30;;;;;;5027046;28;20392;-71
2021/12/29 06:38:27;;;;;;;1.45;0.70;;;11.30;83.80;;;;;;5039842;28;20183;-72
2021/12/29 06:40:53;;;;;;;1.33;0.80;;;11.30;83.30;;;;;;5046898;28;20049;-71
2021/12/29 06:43:19;;;;;;;2.22;0.93;;;11.30;83.30;;;;;;5038771;28;20029;-72
2021/12/29 06:45:45;;;;;;;0.90;0.68;;;11.30;83.30;;;;;;5042345;28;20501;-71
2021/12/29 06:48:11;;;;;;;1.05;0.70;;;11.30;83.20;;;;;;5043420;28;20098;-72
2021/12/29 06:50:37;;;;;;;0.90;0.70;;;11.40;83.40;;;;;;5046598;28;20439;-71
2021/12/29 06:53:03;;;;;;;0.95;0.80;;;11.40;83.40;;;;;;5046326;28;20147;-71
2021/12/29 06:55:29;;;;;;;1.17;0.88;;;11.40;83.30;;;;;;5029347;28;20109;-73
2021/12/29 06:57:55;;;;;;;1.50;0.70;;;11.40;83.30;;;;;;5045422;28;20392;-73
2021/12/29 07:00:21;;;;;;;1.40;0.77;;;11.40;83.30;;;;;;5046728;28;20396;-72
2021/12/29 07:02:47;;;;;;;1.15;1.05;;;11.40;83.30;;;;;;5046270;28;20028;-72
2021/12/29 07:05:15;;;;;;;0.80;0.70;;;11.40;83.30;;;;;;5028675;28;20059;-72
2021/12/29 07:07:42;;;;;;;1.00;0.65;;;11.40;83.30;;;;;;5048635;28;20036;-72
2021/12/29 07:10:08;;;;;;;1.23;0.70;;;11.40;83.20;;;;;;5063843;28;20089;-72
2021/12/29 07:12:34;;;;;;;1.20;0.70;;;11.40;83.20;;;;;;5065792;28;20126;-73
2021/12/29 07:15:01;;;;;;;1.65;0.90;;;11.50;83.40;;;;;;5046441;28;20103;-73
2021/12/29 07:17:27;;;;;;;1.02;0.60;;;11.50;83.30;;;;;;5046804;28;20252;-72
2021/12/29 07:19:53;;;;;;;0.98;0.80;;;11.50;83.40;;;;;;5045402;28;20045;-72
2021/12/29 07:22:19;;;;;;;0.75;0.75;;;11.50;83.30;;;;;;5030759;28;20035;-73
2021/12/29 07:24:45;;;;;;;0.73;0.70;;;11.50;83.30;;;;;;5046739;28;20025;-73
2021/12/29 07:27:11;;;;;;;1.23;1.13;;;11.50;83.30;;;;;;5044960;28;20033;-72
2021/12/29 07:29:37;;;;;;;1.35;0.52;;;11.60;83.50;;;;;;5045759;28;20036;-72
2021/12/29 07:32:04;;;;;;;1.00;0.63;;;11.60;83.40;;;;;;5046480;28;20040;-72
2021/12/29 07:34:30;;;;;;;0.80;0.60;;;11.60;83.40;;;;;;5051730;28;20024;-73
2021/12/29 07:36:56;;;;;;;0.80;0.60;;;11.70;83.50;;;;;;5045890;28;20127;-72
2021/12/29 07:39:23;;;;;;;1.80;0.70;;;11.70;83.50;;;;;;5028153;28;20033;-72
2021/12/29 07:41:49;;;;;;;1.08;0.77;;;11.70;83.40;;;;;;5045703;28;20033;-71
2021/12/29 07:44:23;;;;;;;1.27;0.70;;;11.80;83.60;;;;;;5053387;28;20391;-72
2021/12/29 07:46:53;;;;;;;1.33;0.90;;;11.80;83.50;;;;;;5054558;28;20403;-72
2021/12/29 07:49:20;;;;;;;1.00;0.57;;;11.80;83.50;;;;;;5054577;28;20398;-72
2021/12/29 07:51:46;;;;;;;1.27;0.80;;;11.80;83.50;;;;;;5055353;28;20617;-72
2021/12/29 07:54:14;;;;;;;0.85;0.80;;;11.80;83.50;;;;;;5038306;28;20028;-72
2021/12/29 07:56:41;;;;;;;0.70;0.50;;;11.80;83.40;;;;;;5066010;28;20028;-72
2021/12/29 07:59:07;;;;;;;0.77;0.77;;;11.90;83.50;;;;;;5051146;28;20476;-72
2021/12/29 08:01:33;;;;;;;0.65;0.50;;;11.90;83.50;;;;;;5045487;28;20044;-73
2021/12/29 08:03:59;;;;;;;0.88;0.55;;;11.90;83.50;;;;;;5045609;28;20029;-73
2021/12/29 08:06:25;;;;;;;0.52;0.40;;;11.90;83.50;;;;;;5045594;28;20480;-73
2021/12/29 08:08:51;;;;;;;0.50;0.30;;;12.00;83.70;;;;;;5048286;28;20036;-72
2021/12/29 08:11:19;;;;;;;0.50;0.40;;;12.00;83.70;;;;;;5049384;28;20506;-72
2021/12/29 08:13:46;;;;;;;0.50;0.50;;;12.00;83.70;;;;;;5049216;28;20572;-73
2021/12/29 08:16:12;;;;;;;0.80;0.68;;;12.00;83.60;;;;;;5048446;28;20029;-72
2021/12/29 08:18:38;;;;;;;0.73;0.52;;;12.10;83.80;;;;;;5031704;28;20031;-71
2021/12/29 08:21:05;;;;;;;0.80;0.50;;;12.10;83.80;;;;;;5049147;28;20041;-71
2021/12/29 08:23:31;;;;;;;1.08;0.70;;;12.10;83.80;;;;;;5048664;28;20256;-72
2021/12/29 08:25:59;;;;;;;0.38;0.38;;;12.10;83.70;;;;;;5031804;28;20033;-71
2021/12/29 08:28:25;;;;;;;0.73;0.60;;;12.20;83.90;;;;;;5048298;28;20077;-71
2021/12/29 08:30:53;;;;;;;0.32;0.32;;;12.20;83.90;;;;;;5032142;28;20048;-71
2021/12/29 08:33:19;;;;;;;0.65;0.50;;;12.20;83.80;;;;;;5034872;28;20042;-72
2021/12/29 08:35:45;;;;;;;0.45;0.45;;;12.30;84.40;;;;;;5048803;28;20037;-72
2021/12/29 08:38:11;;;;;;;0.55;0.40;;;12.30;83.90;;;;;;5049019;28;20044;-72
2021/12/29 08:40:37;;;;;;;0.70;0.70;;;12.30;83.90;;;;;;5054972;28;20099;-71
2021/12/29 08:43:04;;;;;;;0.45;0.40;;;12.30;83.80;;;;;;5068603;28;20102;-71
2021/12/29 08:45:31;;;;;;;0.55;0.38;;;12.40;84.00;;;;;;5067460;28;20376;-72
2021/12/29 08:47:58;;;;;;;0.45;0.43;;;12.40;84.00;;;;;;5068691;28;20480;-72
2021/12/29 08:50:29;;;;;;;0.70;0.50;;;12.40;84.00;;;;;;5068351;28;20025;-72
2021/12/29 08:53:08;;;;;;;1.50;0.70;;;12.50;84.10;;;;;;5067516;28;20036;-72
2021/12/29 08:55:35;;;;;;;2.03;0.40;;;12.50;84.10;;;;;;5068796;28;20029;-72
2021/12/29 08:58:02;;;;;;;0.75;0.52;;;12.50;84.10;;;;;;5068102;28;20036;-71
2021/12/29 09:00:28;;;;;;;0.40;0.40;;;12.50;84.10;;;;;;5068720;28;20063;-71
2021/12/29 09:02:54;;;;;;;0.65;0.60;;;12.50;84.10;;;;;;5050968;28;20028;-72
2021/12/29 09:05:20;;;;;;;0.50;0.50;;;12.50;84.10;;;;;;5068754;28;20086;-72
2021/12/29 09:07:47;;;;;;;0.63;0.63;;;12.50;84.10;;;;;;5068324;28;20141;-72
2021/12/29 09:10:15;;;;;;;0.30;0.30;;;12.60;84.30;;;;;;5068315;28;20392;-73
2021/12/29 09:12:41;;;;;;;0.47;0.47;;;12.60;84.20;;;;;;5068040;28;20028;-72
2021/12/29 09:15:08;;;;;;;0.47;0.30;;;12.60;84.20;;;;;;5068628;28;20036;-72
2021/12/29 09:17:34;;;;;;;0.30;0.30;;;12.70;84.40;;;;;;5068168;28;20029;-72
2021/12/29 09:20:01;;;;;;;0.77;0.50;;;12.70;84.40;;;;;;5067671;28;20115;-72
2021/12/29 09:22:28;;;;;;;0.60;0.40;;;12.70;84.40;;;;;;5068326;28;20031;-72
2021/12/29 09:24:54;;;;;;;1.80;0.40;;;12.70;84.40;;;;;;5067732;28;20513;-72
2021/12/29 09:27:20;;;;;;;0.38;0.38;;;12.70;84.30;;;;;;5068202;28;20035;-72
2021/12/29 09:29:46;;;;;;;0.60;0.60;;;12.80;84.50;;;;;;5067530;28;20342;-71
2021/12/29 09:32:12;;;;;;;2.22;0.50;;;12.80;84.40;;;;;;5068105;28;20024;-72
2021/12/29 09:34:38;;;;;;;1.27;0.30;;;12.90;84.60;;;;;;5067763;28;20064;-72
2021/12/29 09:37:06;;;;;;;0.30;0.30;;;12.90;84.50;;;;;;5050422;28;20484;-72
2021/12/29 09:39:32;;;;;;;0.38;0.30;;;12.90;84.50;;;;;;5066368;28;20491;-72
2021/12/29 09:41:58;;;;;;;0.40;0.40;;;13.00;84.60;;;;;;5066479;28;20040;-73
2021/12/29 09:44:24;;;;;;;0.20;0.20;;;13.00;84.50;;;;;;5063190;28;20586;-73
2021/12/29 09:46:52;;;;;;;0.70;0.40;;;13.10;84.60;;;;;;5062648;28;20130;-72
2021/12/29 09:49:18;;;;;;;0.80;0.50;;;13.10;84.50;;;;;;5052805;28;20516;-72
2021/12/29 09:51:44;;;;;;;0.40;0.30;;;13.10;84.50;;;;;;5047594;28;20415;-73
2021/12/29 09:54:11;;;;;;;0.30;0.20;;;13.20;84.60;;;;;;5047465;28;20536;-71
2021/12/29 09:56:37;;;;;;;2.92;0.60;;;13.20;84.50;;;;;;5047389;28;20044;-72
2021/12/29 09:59:05;;;;;;;0.68;0.40;;;13.30;84.60;;;;;;5042199;28;20028;-72
2021/12/29 10:01:31;;;;;;;1.20;0.60;;;13.30;84.60;;;;;;5063993;28;20059;-72
2021/12/29 10:03:57;;;;;;;2.22;0.52;;;13.30;84.50;;;;;;5066197;28;20042;-72
2021/12/29 10:06:23;;;;;;;0.50;0.50;;;13.40;84.60;;;;;;5067898;28;20120;-72
2021/12/29 10:08:49;;;;;;;0.88;0.38;;;13.40;84.60;;;;;;5067067;28;20020;-72
2021/12/29 10:11:26;;;;;;;1.60;0.50;;;13.40;84.60;;;;;;5049317;28;20028;-72
2021/12/29 10:13:54;;;;;;;1.08;0.52;;;13.40;84.60;;;;;;5048805;28;20111;-72
2021/12/29 10:16:24;;;;;;;2.55;0.73;;;13.50;84.70;;;;;;5066788;28;20400;-72
2021/12/29 10:18:58;;;;;;;1.42;0.50;;;13.50;84.70;;;;;;5066860;28;20039;-72
2021/12/29 10:21:28;;;;;;;1.75;0.63;;;13.60;84.80;;;;;;5066808;28;20040;-72
2021/12/29 10:23:59;;;;;;;2.72;0.43;;;13.60;84.70;;;;;;5066937;28;20029;-72
2021/12/29 10:26:30;;;;;;;0.98;0.50;;;13.70;84.80;;;;;;5066801;28;20040;-72
2021/12/29 10:29:06;;;;;;;2.90;0.32;;;13.70;84.80;;;;;;5048856;28;20403;-72
2021/12/29 10:31:38;;;;;;;0.85;0.43;;;13.70;84.70;;;;;;5065512;28;20130;-73
2021/12/29 10:34:13;;;;;;;1.50;0.50;;;13.80;84.80;;;;;;5065969;28;20025;-72
2021/12/29 10:36:54;;;;;;;1.67;0.50;;;13.80;84.70;;;;;;5048604;28;20642;-71
2021/12/29 10:39:34;;;;;;;1.65;0.50;;;13.90;84.80;;;;;;5066631;28;20042;-72
2021/12/29 10:42:02;;;;;;;1.42;0.60;;;13.90;84.80;;;;;;5066888;28;20060;-72
2021/12/29 10:44:33;;;;;;;3.88;0.85;;;14.00;84.90;;;;;;5066466;28;20541;-72
2021/12/29 10:47:01;;;;;;;3.10;0.60;;;14.00;84.90;;;;;;5065933;28;20198;-73
2021/12/29 10:49:28;;;;;;;2.42;0.73;;;14.00;84.90;;;;;;5066617;28;20037;-71
2021/12/29 10:51:59;;;;;;;2.40;0.70;;;14.10;85.10;;;;;;5048552;28;20127;-72
2021/12/29 10:54:28;;;;;;;3.40;0.80;;;14.10;85.00;;;;;;5066043;28;20362;-72
2021/12/29 10:57:04;;;;;;;5.35;1.38;;;14.10;85.00;;;;;;5060632;28;20103;-71
2021/12/29 10:59:34;;;;;;;2.55;1.02;;;14.20;85.20;;;;;;5048063;28;20036;-70
2021/12/29 11:02:00;;;;;;;4.25;0.80;;;14.20;85.10;;;;;;5066930;28;20036;-72
2021/12/29 11:04:27;;;;;;;10.45;2.47;;;14.30;85.20;;;;;;5065651;28;20025;-73
2021/12/29 11:06:56;;;;;;;3.85;0.95;;;14.30;85.10;;;;;;5066160;28;20032;-72
2021/12/29 11:09:32;;;;;;;6.85;1.27;;;14.40;85.20;;;;;;5065736;28;20074;-72
2021/12/29 11:12:01;;;;;;;4.65;1.05;;;14.50;85.30;;;;;;5065938;28;20480;-72
2021/12/29 11:14:32;;;;;;;2.75;0.68;;;14.50;85.20;;;;;;5065771;28;20032;-72
2021/12/29 11:17:08;;;;;;;3.25;1.45;;;14.60;85.30;;;;;;5066151;28;20272;-72
2021/12/29 11:19:37;;;;;;;4.43;1.00;;;14.60;85.10;;;;;;5065419;28;20024;-72
2021/12/29 11:22:05;;;;;;;3.30;1.10;;;14.70;85.20;;;;;;5065290;28;20025;-72
2021/12/29 11:24:31;;;;;;;6.78;1.65;;;14.70;85.20;;;;;;5065554;28;20063;-69
2021/12/29 11:26:59;;;;;;;9.50;2.20;;;14.70;85.20;;;;;;5066052;28;20416;-72
2021/12/29 11:29:25;;;;;;;5.97;1.67;;;14.80;85.30;;;;;;5064914;28;20031;-72
2021/12/29 11:31:59;;;;;;;5.20;1.48;;;14.90;85.30;;;;;;5065736;28;20550;-72
2021/12/29 11:34:27;;;;;;;5.70;1.60;;;14.90;85.30;;;;;;5065019;28;20086;-72
2021/12/29 11:37:11;;;;;;;5.88;1.67;;;14.90;85.10;;;;;;5066075;28;20028;-73
2021/12/29 11:39:41;;;;;;;10.27;3.17;;;15.00;85.20;;;;;;5065733;28;21014;-72
2021/12/29 11:42:08;;;;;;;10.65;3.40;;;15.00;85.20;;;;;;5065235;28;20352;-72
2021/12/29 11:44:35;;;;;;;9.40;2.40;;;15.10;85.30;;;;;;5065363;28;20075;-72
2021/12/29 11:47:03;;;;;;;13.80;2.80;;;15.10;85.20;;;;;;5065152;28;20515;-72
2021/12/29 11:49:29;;;;;;;11.68;3.20;;;15.20;85.30;;;;;;5059901;28;20043;-72
2021/12/29 11:52:17;;;;;;;14.35;4.18;;;15.30;85.80;;;;;;5065414;28;20033;-73
2021/12/29 11:55:16;;;;;;;13.95;3.45;;;15.30;85.10;;;;;;5048060;28;20037;-72
2021/12/29 11:57:43;;;;;;;12.93;3.40;;;15.40;85.20;;;;;;5014573;28;20515;-71
2021/12/29 12:00:17;;;;;;;16.20;4.20;;;15.40;85.10;;;;;;5045542;28;20037;-72
2021/12/29 12:02:45;;;;;;;20.70;4.18;;;15.40;85.10;;;;;;5044804;28;20036;-73
2021/12/29 12:05:17;;;;;;;20.73;4.63;;;15.40;85.00;;;;;;5028533;28;20029;-72
2021/12/29 12:07:44;;;;;;;18.00;5.47;;;15.50;85.00;;;;;;5037824;28;20029;-71
2021/12/29 12:10:34;;;;;;;24.20;5.60;;;15.60;85.10;;;;;;5027629;28;20044;-72
2021/12/29 12:13:04;;;;;;;13.55;2.90;;;15.60;85.00;;;;;;5045384;28;20032;-72
2021/12/29 12:15:36;;;;;;;16.48;4.35;;;15.70;85.10;;;;;;5027754;28;20453;-73
2021/12/29 12:18:07;;;;;;;18.42;5.45;;;15.70;85.10;;;;;;5044873;28;20036;-73
2021/12/29 12:20:47;;;;;;;18.92;5.35;;;15.80;85.00;;;;;;5045644;28;20491;-72
2021/12/29 12:23:28;;;;;;;22.02;4.97;;;15.90;84.80;;;;;;5050479;28;20020;-72
2021/12/29 12:26:07;;;;;;;22.88;6.38;;;16.00;84.70;;;;;;5065661;28;20029;-72
2021/12/29 12:28:44;;;;;;;25.42;5.88;;;16.10;84.70;;;;;;5057238;28;20037;-73
2021/12/29 12:31:24;;;;;;;28.77;8.48;;;16.10;84.50;;;;;;5045595;28;20468;-72
2021/12/29 12:33:51;;;;;;;31.20;7.18;;;16.10;84.50;;;;;;5036626;28;20029;-73
2021/12/29 12:36:17;;;;;;;25.02;5.90;;;16.20;84.50;;;;;;5064424;28;20086;-72
2021/12/29 12:38:43;;;;;;;24.85;6.40;;;16.20;84.50;;;;;;5065531;28;20044;-72
2021/12/29 12:41:16;;;;;;;27.00;6.72;;;16.20;84.50;;;;;;5065572;28;20075;-72
2021/12/29 12:44:08;;;;;;;26.40;6.88;;;16.20;84.40;;;;;;5065720;28;20033;-72
2021/12/29 12:46:40;;;;;;;29.58;8.40;;;16.10;84.20;;;;;;5062138;28;20084;-72
2021/12/29 12:49:21;;;;;;;30.30;6.88;;;16.10;84.20;;;;;;5052261;28;20025;-72
2021/12/29 12:51:57;;;;;;;26.83;7.00;;;16.10;84.10;;;;;;5027384;28;20029;-72
2021/12/29 12:54:25;;;;;;;33.00;8.50;;;16.10;84.10;;;;;;5045332;28;20610;-73
2021/12/29 12:56:51;;;;;;;28.80;7.45;;;16.10;84.10;;;;;;5048563;28;20065;-73
2021/12/29 12:59:18;;;;;;;36.78;10.32;;;16.10;84.10;;;;;;5048555;28;20025;-71
2021/12/29 13:01:51;;;;;;;34.17;8.55;;;16.10;84.00;;;;;;5048825;28;20033;-72